Time;durP1;ratioP1;P1;durP2;ratioP2;P2;SDS_P1;SDS_P2;PMS_P1;PMS_P2;Temp;Humidity;BMP_temperature;BMP_pressure;BME280_temperature;BME280_humidity;BME280_pressure;Samples;Min_cycle;Max_cycle;Signal;HPM_P1;HPM_P2
2023/02/21 02:15:38;;;;;;;25.20;18.70;;;11.40;99.90;;;;;;4997559;28;20181;-76
2023/02/21 02:18:36;;;;;;;24.85;18.88;;;11.40;99.90;;;;;;5009869;28;20205;-75
2023/02/21 02:21:14;;;;;;;24.83;17.25;;;11.40;99.90;;;;;;5006370;28;20221;-75
2023/02/21 02:24:01;;;;;;;25.40;19.38;;;11.50;99.90;;;;;;5013356;28;20313;-75
2023/02/21 02:26:58;;;;;;;30.05;20.33;;;11.40;99.90;;;;;;5012996;28;20186;-75
2023/02/21 02:33:20;;;;;;;24.17;19.02;;;11.50;99.90;;;;;;5012645;28;20201;-76
2023/02/21 02:35:59;;;;;;;26.63;20.83;;;11.50;99.90;;;;;;5010970;28;20177;-76
2023/02/21 02:39:12;;;;;;;25.38;18.95;;;11.50;99.90;;;;;;5010133;28;20174;-76
2023/02/21 02:42:04;;;;;;;25.17;18.65;;;11.50;99.90;;;;;;5001713;28;20233;-75
2023/02/21 02:44:42;;;;;;;23.92;17.95;;;11.50;99.90;;;;;;4987574;28;20221;-76
2023/02/21 02:47:18;;;;;;;27.58;20.17;;;11.50;99.90;;;;;;5003854;28;20180;-76
2023/02/21 02:49:47;;;;;;;27.85;19.27;;;11.60;99.90;;;;;;5009716;28;20260;-76
2023/02/21 02:52:13;;;;;;;25.70;19.38;;;11.60;99.90;;;;;;4993578;28;20524;-76
2023/02/21 02:54:38;;;;;;;21.70;16.97;;;11.60;99.90;;;;;;5011394;28;20266;-76
2023/02/21 02:57:09;;;;;;;27.80;19.07;;;11.60;99.90;;;;;;5010883;28;20635;-75
2023/02/21 02:59:43;;;;;;;27.25;17.40;;;11.60;99.90;;;;;;4978193;28;20248;-76
2023/02/21 03:02:30;;;;;;;24.30;18.25;;;11.60;99.90;;;;;;4993513;28;20201;-76
2023/02/21 03:05:17;;;;;;;22.73;17.73;;;11.60;99.90;;;;;;5010211;28;20638;-76
2023/02/21 03:08:07;;;;;;;23.98;16.98;;;11.60;99.90;;;;;;5009703;28;20198;-76
2023/02/21 03:10:36;;;;;;;26.60;17.25;;;11.60;99.90;;;;;;5009428;28;20181;-76
2023/02/21 03:13:11;;;;;;;24.85;15.73;;;11.60;99.90;;;;;;5009220;28;20197;-76
2023/02/21 03:15:48;;;;;;;22.95;17.13;;;11.60;99.90;;;;;;4993674;28;20177;-76
2023/02/21 03:18:20;;;;;;;24.00;17.38;;;11.60;99.90;;;;;;5009761;28;20217;-76
2023/02/21 03:20:52;;;;;;;25.48;16.75;;;11.60;99.90;;;;;;5002958;28;20187;-76
2023/02/21 03:23:20;;;;;;;21.23;15.90;;;11.60;99.90;;;;;;4993601;28;20197;-76
2023/02/21 03:25:49;;;;;;;27.75;16.25;;;11.60;99.90;;;;;;4993505;28;20182;-76
2023/02/21 03:28:15;;;;;;;23.05;15.73;;;11.60;99.90;;;;;;5009317;28;20296;-76
2023/02/21 03:30:45;;;;;;;29.73;16.67;;;11.60;99.90;;;;;;5009559;28;20233;-75
2023/02/21 03:33:10;;;;;;;24.45;17.38;;;11.60;99.90;;;;;;4993482;28;20194;-76
2023/02/21 03:35:37;;;;;;;28.55;18.17;;;11.60;99.90;;;;;;4977728;28;20175;-76
2023/02/21 03:38:03;;;;;;;28.50;16.47;;;11.60;99.90;;;;;;5009686;28;20769;-76
2023/02/21 03:40:32;;;;;;;26.05;17.63;;;11.60;99.90;;;;;;5009915;28;20616;-76
2023/02/21 03:43:01;;;;;;;24.88;17.75;;;11.60;99.90;;;;;;5009407;28;20285;-76
2023/02/21 03:45:32;;;;;;;22.70;16.58;;;11.60;99.90;;;;;;5009916;28;20179;-76
2023/02/21 03:48:13;;;;;;;26.23;15.50;;;11.60;99.90;;;;;;4993268;28;20206;-76
2023/02/21 03:50:40;;;;;;;25.17;15.38;;;11.60;99.90;;;;;;5009970;28;20224;-76
2023/02/21 03:53:06;;;;;;;21.02;15.18;;;11.70;99.90;;;;;;5012979;28;20190;-76
2023/02/21 03:55:32;;;;;;;23.23;15.43;;;11.60;99.90;;;;;;4996518;28;20181;-76
2023/02/21 03:58:01;;;;;;;27.15;15.00;;;11.70;99.90;;;;;;5013176;28;20935;-76
2023/02/21 04:00:29;;;;;;;24.05;16.30;;;11.60;99.90;;;;;;4996075;28;20260;-76
2023/02/21 04:02:55;;;;;;;22.90;15.20;;;11.60;99.90;;;;;;5009873;28;20206;-76
2023/02/21 04:05:31;;;;;;;22.33;15.05;;;11.60;99.90;;;;;;5004750;28;20942;-76
2023/02/21 04:07:57;;;;;;;22.50;13.13;;;11.60;99.90;;;;;;5013176;28;20202;-76
2023/02/21 04:10:22;;;;;;;25.27;16.40;;;11.60;99.90;;;;;;4989259;28;20201;-76
2023/02/21 04:12:48;;;;;;;20.90;15.23;;;11.60;99.90;;;;;;5004283;28;20194;-76
2023/02/21 04:15:15;;;;;;;24.88;16.10;;;11.60;99.90;;;;;;4996162;28;20210;-76
2023/02/21 04:17:41;;;;;;;23.20;16.57;;;11.60;99.90;;;;;;4992920;28;20713;-76
2023/02/21 04:20:08;;;;;;;23.30;16.42;;;11.60;99.90;;;;;;4987767;28;20916;-76
2023/02/21 04:22:39;;;;;;;25.67;17.05;;;11.50;99.90;;;;;;5001851;28;20203;-77
2023/02/21 04:25:05;;;;;;;20.35;14.43;;;11.50;99.90;;;;;;5001307;28;20170;-76
2023/02/21 04:27:37;;;;;;;28.20;16.95;;;11.50;99.90;;;;;;4992671;28;20179;-76
2023/02/21 04:30:03;;;;;;;20.73;14.88;;;11.50;99.90;;;;;;4993047;28;20537;-76
2023/02/21 04:32:30;;;;;;;22.05;14.93;;;11.50;99.90;;;;;;4976219;28;20198;-76
2023/02/21 04:35:02;;;;;;;24.75;16.58;;;11.50;99.90;;;;;;4993503;28;20174;-75
2023/02/21 04:37:29;;;;;;;24.10;15.55;;;11.50;99.90;;;;;;4976313;28;20174;-75
2023/02/21 04:39:57;;;;;;;24.52;16.65;;;11.50;99.90;;;;;;4977109;28;20690;-76
2023/02/21 04:42:22;;;;;;;22.70;15.87;;;11.60;99.90;;;;;;4992926;28;20195;-77
2023/02/21 04:44:48;;;;;;;23.40;15.10;;;11.60;99.90;;;;;;4976954;28;20171;-76
2023/02/21 04:47:14;;;;;;;26.00;16.30;;;11.60;99.90;;;;;;4993772;28;20235;-76
2023/02/21 04:49:40;;;;;;;23.97;16.43;;;11.60;99.90;;;;;;4992499;28;20672;-75
2023/02/21 04:52:05;;;;;;;23.30;17.43;;;11.60;99.90;;;;;;4993555;28;20195;-75
2023/02/21 04:54:31;;;;;;;26.93;15.73;;;11.60;99.90;;;;;;4976025;28;20171;-75
2023/02/21 04:56:57;;;;;;;23.37;16.93;;;11.60;99.90;;;;;;4993449;28;20213;-75
2023/02/21 04:59:22;;;;;;;21.23;15.10;;;11.60;99.90;;;;;;4975816;28;21389;-75
2023/02/21 05:01:48;;;;;;;29.13;17.03;;;11.60;99.90;;;;;;4991457;28;20245;-75
2023/02/21 05:04:14;;;;;;;21.97;15.40;;;11.60;99.90;;;;;;4993404;28;20189;-75
2023/02/21 05:06:40;;;;;;;26.20;16.97;;;11.60;99.90;;;;;;4993685;28;21134;-75
2023/02/21 05:09:05;;;;;;;20.10;15.63;;;11.60;99.90;;;;;;4991786;28;20289;-75
2023/02/21 05:11:36;;;;;;;23.07;15.67;;;11.60;99.90;;;;;;5007616;28;20540;-75
2023/02/21 05:14:02;;;;;;;23.80;14.52;;;11.60;99.90;;;;;;5001706;28;20183;-75
2023/02/21 05:16:28;;;;;;;20.13;15.77;;;11.60;99.90;;;;;;5014249;28;20236;-75
2023/02/21 05:18:53;;;;;;;22.03;15.83;;;11.60;99.90;;;;;;5014371;28;20797;-76
2023/02/21 05:21:19;;;;;;;24.57;16.23;;;11.60;99.90;;;;;;5006684;28;20701;-75
2023/02/21 05:23:54;;;;;;;25.97;16.80;;;11.60;99.90;;;;;;5014073;28;20623;-75
2023/02/21 05:26:23;;;;;;;29.85;16.90;;;11.60;99.90;;;;;;5014943;28;21306;-75
2023/02/21 05:28:50;;;;;;;20.83;15.15;;;11.60;99.90;;;;;;5013932;28;20201;-76
2023/02/21 05:31:15;;;;;;;22.52;15.25;;;11.60;99.90;;;;;;5012801;28;20208;-75
2023/02/21 05:33:41;;;;;;;23.77;15.10;;;11.60;99.90;;;;;;5013897;28;20174;-75
2023/02/21 05:36:07;;;;;;;23.73;16.07;;;11.60;99.90;;;;;;5013646;28;20177;-75
2023/02/21 05:38:42;;;;;;;25.27;16.27;;;11.60;99.90;;;;;;5013530;28;20210;-75
2023/02/21 05:41:08;;;;;;;23.40;15.25;;;11.60;99.90;;;;;;5010548;28;20621;-75
2023/02/21 05:43:34;;;;;;;19.27;15.80;;;11.60;99.90;;;;;;5011436;28;20182;-75
2023/02/21 05:46:00;;;;;;;23.07;15.50;;;11.60;99.90;;;;;;5010721;28;20184;-76
2023/02/21 05:48:26;;;;;;;24.52;16.83;;;11.60;99.90;;;;;;5010998;28;20264;-75
2023/02/21 05:50:52;;;;;;;21.43;15.20;;;11.60;99.90;;;;;;4975117;28;20179;-75
2023/02/21 05:53:18;;;;;;;20.73;15.40;;;11.50;99.90;;;;;;4989286;28;20563;-75
2023/02/21 05:55:44;;;;;;;26.93;17.47;;;11.50;99.90;;;;;;4991037;28;20238;-76
2023/02/21 05:58:10;;;;;;;22.17;16.37;;;11.50;99.90;;;;;;4991023;28;20170;-76
2023/02/21 06:00:38;;;;;;;19.93;14.23;;;11.50;99.90;;;;;;4975201;28;20557;-76
2023/02/21 06:03:04;;;;;;;25.48;15.98;;;11.60;99.90;;;;;;4991962;28;20622;-76
2023/02/21 06:05:30;;;;;;;25.40;16.60;;;11.50;99.90;;;;;;4971757;28;20678;-76
2023/02/21 06:07:55;;;;;;;23.50;16.20;;;11.50;99.90;;;;;;4972604;28;20210;-76
2023/02/21 06:10:21;;;;;;;26.53;16.53;;;11.50;99.90;;;;;;5003327;28;20174;-76
2023/02/21 06:12:47;;;;;;;23.40;16.70;;;11.50;99.90;;;;;;5009650;28;20198;-76
2023/02/21 06:15:14;;;;;;;22.43;15.40;;;11.50;99.90;;;;;;4993714;28;20581;-76
2023/02/21 06:17:41;;;;;;;26.77;15.50;;;11.50;99.90;;;;;;5011967;28;20573;-76
2023/02/21 06:20:13;;;;;;;22.05;16.52;;;11.50;99.90;;;;;;5003223;28;20266;-76
2023/02/21 06:22:39;;;;;;;25.05;15.70;;;11.50;99.90;;;;;;5011222;28;20190;-76
2023/02/21 06:25:05;;;;;;;23.73;16.57;;;11.50;99.90;;;;;;4993981;28;20660;-76
2023/02/21 06:27:31;;;;;;;22.40;14.52;;;11.50;99.90;;;;;;5011827;28;20221;-76
2023/02/21 06:29:56;;;;;;;25.30;16.50;;;11.40;99.90;;;;;;5009509;28;20248;-76
2023/02/21 06:32:22;;;;;;;21.60;14.40;;;11.40;99.90;;;;;;5011175;28;20210;-76
2023/02/21 06:34:48;;;;;;;23.50;15.03;;;11.40;99.90;;;;;;5010165;28;20178;-76
2023/02/21 06:37:14;;;;;;;24.03;14.30;;;11.30;99.90;;;;;;5009762;28;20176;-76
2023/02/21 06:39:39;;;;;;;26.63;17.10;;;11.30;99.90;;;;;;4993173;28;20179;-76
2023/02/21 06:42:05;;;;;;;25.15;16.65;;;11.30;99.90;;;;;;4998345;28;20597;-76
2023/02/21 06:44:32;;;;;;;20.20;15.10;;;11.20;99.90;;;;;;4990301;28;20213;-76
2023/02/21 06:46:57;;;;;;;28.75;16.60;;;11.20;99.90;;;;;;4990407;28;20574;-76
2023/02/21 06:49:23;;;;;;;26.10;16.80;;;11.20;99.90;;;;;;4990608;28;20198;-76
2023/02/21 06:51:50;;;;;;;27.87;16.23;;;11.20;99.90;;;;;;4972992;28;20205;-77
2023/02/21 06:54:16;;;;;;;27.20;18.35;;;11.20;99.90;;;;;;4990272;28;20278;-77
2023/02/21 06:56:43;;;;;;;24.20;15.73;;;11.20;99.90;;;;;;4974106;28;20639;-77
2023/02/21 06:59:09;;;;;;;23.23;14.02;;;11.20;99.90;;;;;;4991842;28;20548;-77
2023/02/21 07:01:35;;;;;;;27.02;17.00;;;11.20;99.90;;;;;;4994798;28;20601;-76
2023/02/21 07:04:01;;;;;;;24.57;16.57;;;11.20;99.90;;;;;;5002213;28;20225;-76
2023/02/21 07:06:27;;;;;;;27.40;15.90;;;11.20;99.90;;;;;;5002386;28;20188;-76
2023/02/21 07:08:53;;;;;;;24.73;14.87;;;11.20;99.90;;;;;;4994941;28;20558;-76
2023/02/21 07:11:21;;;;;;;22.00;15.40;;;11.10;99.90;;;;;;4989350;28;21177;-76
2023/02/21 07:13:51;;;;;;;23.60;15.20;;;11.10;99.90;;;;;;4974108;28;20183;-76
2023/02/21 07:16:18;;;;;;;28.15;16.77;;;11.10;99.90;;;;;;4992177;28;20183;-76
2023/02/21 07:18:45;;;;;;;28.98;18.33;;;11.10;99.90;;;;;;4995524;28;20202;-76
2023/02/21 07:21:12;;;;;;;30.02;16.67;;;11.10;99.90;;;;;;5002493;28;20201;-76
2023/02/21 07:23:38;;;;;;;26.73;17.30;;;11.10;99.90;;;;;;5009274;28;20178;-76
2023/02/21 07:26:04;;;;;;;27.17;17.47;;;11.10;99.90;;;;;;5014104;28;20249;-76
2023/02/21 07:28:29;;;;;;;25.00;16.60;;;11.10;99.90;;;;;;5011856;28;20341;-76
2023/02/21 07:30:55;;;;;;;28.43;17.07;;;11.10;99.90;;;;;;5013726;28;20324;-76
2023/02/21 07:33:21;;;;;;;31.67;17.70;;;11.10;99.90;;;;;;5013955;28;20174;-77
2023/02/21 07:35:47;;;;;;;26.40;18.30;;;11.10;99.90;;;;;;5013260;28;20646;-77
2023/02/21 07:38:20;;;;;;;30.30;16.50;;;11.20;99.90;;;;;;5013586;28;20635;-77
2023/02/21 07:40:45;;;;;;;26.40;16.60;;;11.10;99.90;;;;;;5012235;28;20692;-77
2023/02/21 07:43:11;;;;;;;28.80;18.50;;;11.10;99.90;;;;;;5012858;28;20698;-77
2023/02/21 07:45:37;;;;;;;26.23;15.10;;;11.10;99.90;;;;;;5013740;28;20278;-76
2023/02/21 07:48:03;;;;;;;27.90;16.35;;;11.20;99.90;;;;;;5013184;28;20694;-77
2023/02/21 07:50:29;;;;;;;24.90;16.30;;;11.20;99.90;;;;;;5013135;28;20177;-77
2023/02/21 07:52:55;;;;;;;24.00;15.83;;;11.20;99.90;;;;;;5015700;28;20204;-76
2023/02/21 07:55:21;;;;;;;24.38;16.23;;;11.20;99.90;;;;;;5012887;28;20176;-77
2023/02/21 07:57:47;;;;;;;32.23;18.00;;;11.30;99.90;;;;;;5037161;22;20309;-75
2023/02/21 08:00:13;;;;;;;31.83;19.95;;;11.30;99.90;;;;;;5001834;28;20597;-75
2023/02/21 08:02:39;;;;;;;28.45;17.55;;;11.30;99.90;;;;;;5013359;28;20566;-75
2023/02/21 08:05:07;;;;;;;28.90;18.27;;;11.40;99.90;;;;;;5012747;28;20216;-75
2023/02/21 08:07:33;;;;;;;25.90;17.00;;;11.30;99.90;;;;;;5020627;28;20194;-76
2023/02/21 08:09:58;;;;;;;26.77;16.60;;;11.40;99.90;;;;;;5014324;28;20681;-76
2023/02/21 08:12:24;;;;;;;28.53;17.67;;;11.40;99.90;;;;;;5011960;28;20224;-75
2023/02/21 08:14:50;;;;;;;26.87;17.17;;;11.40;99.90;;;;;;5014791;28;20202;-75
2023/02/21 08:17:15;;;;;;;30.40;17.70;;;11.40;99.90;;;;;;5012707;28;20190;-75
2023/02/21 08:19:41;;;;;;;26.10;16.57;;;11.40;99.90;;;;;;5012982;28;20582;-75
2023/02/21 08:22:07;;;;;;;25.53;17.73;;;11.40;99.90;;;;;;5032296;28;20182;-76
2023/02/21 08:24:33;;;;;;;27.87;18.97;;;11.40;99.90;;;;;;5036048;28;20166;-76
2023/02/21 08:26:59;;;;;;;29.20;17.50;;;11.40;99.90;;;;;;5034116;28;20627;-76
2023/02/21 08:29:25;;;;;;;24.73;16.37;;;11.50;99.90;;;;;;5034814;28;20635;-75
2023/02/21 08:31:50;;;;;;;28.27;16.63;;;11.50;99.90;;;;;;5032502;28;20584;-76
2023/02/21 08:34:16;;;;;;;25.23;15.97;;;11.50;99.90;;;;;;5032998;28;20177;-76
2023/02/21 08:36:42;;;;;;;23.97;15.93;;;11.50;99.90;;;;;;5031441;28;20673;-76
2023/02/21 08:39:09;;;;;;;25.80;16.40;;;11.50;99.90;;;;;;5032162;28;20288;-76
2023/02/21 08:41:37;;;;;;;26.73;17.50;;;11.50;99.90;;;;;;5031593;28;20220;-75
2023/02/21 08:44:04;;;;;;;31.17;16.67;;;11.60;99.90;;;;;;5033800;28;20212;-76
2023/02/21 08:46:29;;;;;;;26.35;14.85;;;11.60;99.90;;;;;;5032329;28;20268;-76
2023/02/21 08:48:55;;;;;;;24.93;16.30;;;11.60;99.90;;;;;;5031926;28;20201;-76
2023/02/21 08:51:26;;;;;;;24.37;17.37;;;11.60;99.90;;;;;;5030869;28;20227;-77
2023/02/21 08:53:52;;;;;;;22.27;16.05;;;11.60;99.90;;;;;;5032493;28;20265;-76
2023/02/21 08:56:19;;;;;;;21.83;15.67;;;11.60;99.90;;;;;;5032883;28;20237;-76
2023/02/21 08:58:45;;;;;;;24.48;15.65;;;11.60;99.90;;;;;;5015340;28;20185;-76
2023/02/21 09:01:11;;;;;;;24.17;15.63;;;11.60;99.90;;;;;;5013670;28;20261;-75
2023/02/21 09:03:37;;;;;;;25.65;16.13;;;11.60;99.90;;;;;;5029237;28;20178;-75
2023/02/21 09:06:03;;;;;;;24.30;16.47;;;11.60;99.90;;;;;;5029159;28;20167;-75
2023/02/21 09:08:32;;;;;;;23.55;15.15;;;11.60;99.90;;;;;;5012325;28;20724;-75
2023/02/21 09:11:02;;;;;;;26.27;15.00;;;11.60;99.90;;;;;;5012035;28;20179;-75
2023/02/21 09:13:29;;;;;;;23.42;14.57;;;11.60;99.90;;;;;;5012283;28;20202;-76
2023/02/21 09:15:58;;;;;;;25.00;15.57;;;11.60;99.90;;;;;;5012223;28;20178;-75
2023/02/21 09:18:24;;;;;;;21.30;15.20;;;11.60;99.90;;;;;;4995333;28;20216;-75
2023/02/21 09:20:52;;;;;;;21.83;14.20;;;11.60;99.90;;;;;;5019680;28;20637;-75
2023/02/21 09:23:19;;;;;;;24.98;15.02;;;11.70;99.90;;;;;;5031969;28;20677;-75
2023/02/21 09:25:46;;;;;;;25.75;15.43;;;11.70;99.90;;;;;;4997961;28;20225;-75
2023/02/21 09:28:14;;;;;;;26.70;15.95;;;11.70;99.90;;;;;;5012652;28;20212;-75
2023/02/21 09:30:40;;;;;;;22.40;15.02;;;11.70;99.90;;;;;;5007745;28;20236;-75
2023/02/21 09:33:06;;;;;;;24.25;15.63;;;11.70;99.90;;;;;;5010273;28;20181;-75
2023/02/21 09:35:32;;;;;;;23.02;15.40;;;11.80;99.90;;;;;;5005789;28;20216;-75
2023/02/21 09:37:59;;;;;;;19.90;13.82;;;11.80;99.90;;;;;;5009192;28;20681;-75
2023/02/21 09:40:56;;;;;;;22.15;14.18;;;11.90;99.90;;;;;;5010825;28;20174;-75
2023/02/21 09:43:32;;;;;;;20.45;13.73;;;11.90;99.90;;;;;;5018797;28;20174;-74
2023/02/21 09:46:05;;;;;;;28.30;15.85;;;11.90;99.90;;;;;;5009508;28;20187;-74
2023/02/21 09:48:31;;;;;;;24.30;15.93;;;11.90;99.90;;;;;;5009245;28;20225;-74
2023/02/21 09:51:01;;;;;;;24.80;16.30;;;12.00;99.90;;;;;;4993759;28;20571;-74
2023/02/21 09:53:31;;;;;;;23.50;15.73;;;12.00;99.90;;;;;;5009214;28;20699;-75
2023/02/21 09:56:00;;;;;;;25.30;16.05;;;12.00;99.90;;;;;;5000527;28;20175;-75
2023/02/21 09:58:26;;;;;;;25.10;16.13;;;12.10;99.90;;;;;;5009730;28;20709;-76
2023/02/21 10:01:01;;;;;;;23.27;14.67;;;12.20;99.90;;;;;;5008293;28;20328;-75
2023/02/21 10:03:48;;;;;;;26.33;16.05;;;12.20;99.90;;;;;;4993798;28;20185;-75
2023/02/21 10:06:41;;;;;;;16.63;12.85;;;12.30;99.90;;;;;;5010219;28;20202;-75
2023/02/21 10:09:40;;;;;;;23.38;14.50;;;12.30;99.90;;;;;;5010516;28;20205;-75
2023/02/21 10:12:40;;;;;;;24.80;13.77;;;12.40;99.90;;;;;;5009555;28;20185;-75
2023/02/21 10:15:37;;;;;;;24.15;15.27;;;12.40;99.90;;;;;;5009779;28;20194;-75
2023/02/21 10:18:15;;;;;;;20.77;12.38;;;12.40;99.90;;;;;;5011491;28;20233;-74
2023/02/21 10:20:51;;;;;;;28.58;17.17;;;12.50;99.90;;;;;;5011649;28;20185;-74
2023/02/21 10:23:32;;;;;;;22.40;15.38;;;12.50;99.90;;;;;;5030638;28;20173;-74
2023/02/21 10:26:08;;;;;;;25.45;16.25;;;12.60;99.90;;;;;;5029571;28;20759;-75
2023/02/21 10:28:34;;;;;;;25.00;17.45;;;12.60;99.90;;;;;;5031791;28;20294;-75
2023/02/21 10:31:06;;;;;;;27.70;18.35;;;12.60;99.90;;;;;;5029617;28;20637;-75
2023/02/21 10:33:34;;;;;;;24.15;17.70;;;12.60;99.90;;;;;;5031135;28;20289;-75
2023/02/21 10:36:00;;;;;;;23.13;16.17;;;12.60;99.90;;;;;;4996878;28;20169;-75
2023/02/21 10:38:27;;;;;;;25.75;16.90;;;12.60;99.90;;;;;;5016002;28;20178;-75
2023/02/21 10:40:57;;;;;;;28.57;18.33;;;12.60;99.90;;;;;;5009778;28;20649;-75
2023/02/21 10:43:38;;;;;;;22.33;15.68;;;12.70;99.90;;;;;;4992724;28;20260;-75
2023/02/21 10:46:22;;;;;;;17.20;14.30;;;12.60;99.90;;;;;;5008709;28;20543;-75
2023/02/21 10:48:51;;;;;;;28.95;18.05;;;12.70;99.90;;;;;;5010288;28;20279;-75
2023/02/21 10:51:32;;;;;;;28.80;19.30;;;12.70;99.90;;;;;;4991327;28;20187;-76
2023/02/21 10:57:45;;;;;;;28.35;16.42;;;12.70;99.90;;;;;;5003509;28;20214;-75
2023/02/21 11:00:24;;;;;;;29.50;17.95;;;12.80;99.90;;;;;;5010279;28;20189;-76
2023/02/21 11:02:55;;;;;;;33.00;19.23;;;12.80;99.90;;;;;;5008913;28;20174;-76
2023/02/21 11:05:22;;;;;;;26.15;19.23;;;12.90;99.90;;;;;;5010857;28;20571;-76
2023/02/21 11:07:56;;;;;;;31.23;21.33;;;13.00;99.90;;;;;;5009026;28;20331;-76
2023/02/21 11:10:31;;;;;;;32.30;20.47;;;13.00;99.90;;;;;;5008736;28;20205;-77
2023/02/21 11:13:05;;;;;;;31.47;20.80;;;13.10;99.90;;;;;;5008479;28;20684;-76
2023/02/21 11:15:31;;;;;;;32.67;23.92;;;13.20;99.90;;;;;;5009030;28;21148;-77
2023/02/21 11:18:05;;;;;;;34.70;23.80;;;13.30;99.90;;;;;;5010244;28;20233;-76
2023/02/21 11:20:31;;;;;;;33.92;23.27;;;13.40;99.90;;;;;;5015725;28;20261;-77
2023/02/21 11:22:57;;;;;;;38.37;23.67;;;13.40;99.90;;;;;;5028548;28;20268;-77
2023/02/21 11:25:36;;;;;;;35.22;24.02;;;13.50;99.90;;;;;;5030130;28;20615;-76
2023/02/21 11:28:15;;;;;;;36.13;24.10;;;13.60;99.90;;;;;;5019804;28;20216;-77
2023/02/21 11:31:04;;;;;;;35.25;23.70;;;13.60;99.90;;;;;;5008084;28;21167;-76
2023/02/21 11:33:31;;;;;;;35.97;24.30;;;13.70;99.90;;;;;;5009305;28;20174;-77
2023/02/21 11:36:15;;;;;;;41.42;26.95;;;13.80;99.90;;;;;;4992523;28;21010;-77
2023/02/21 11:38:44;;;;;;;33.03;21.80;;;13.90;99.90;;;;;;5009340;28;20245;-77
2023/02/21 11:41:27;;;;;;;35.80;25.40;;;14.00;99.90;;;;;;5008907;28;20574;-77
2023/02/21 11:43:54;;;;;;;37.50;25.20;;;13.90;99.90;;;;;;5010527;28;20597;-76
2023/02/21 11:46:31;;;;;;;36.93;25.63;;;13.80;99.90;;;;;;5009399;28;20673;-77
2023/02/21 11:49:16;;;;;;;34.67;25.77;;;13.80;99.90;;;;;;5009005;28;20644;-77
2023/02/21 11:52:00;;;;;;;35.03;24.60;;;13.70;99.90;;;;;;5009169;28;20589;-77
2023/02/21 11:54:31;;;;;;;36.17;24.43;;;13.70;99.90;;;;;;5010346;28;20589;-76
2023/02/21 11:57:16;;;;;;;40.27;25.83;;;13.80;99.90;;;;;;5002042;28;20653;-76
2023/02/21 11:59:57;;;;;;;31.33;22.40;;;14.00;99.90;;;;;;5009060;28;20596;-75
2023/02/21 12:02:42;;;;;;;35.93;23.37;;;14.10;99.90;;;;;;5004311;28;20586;-75
2023/02/21 12:05:26;;;;;;;37.90;24.00;;;14.20;99.90;;;;;;5012005;28;20651;-75
2023/02/21 12:08:01;;;;;;;36.83;25.80;;;14.30;99.90;;;;;;5003482;28;20613;-75
2023/02/21 12:10:48;;;;;;;37.30;25.37;;;14.40;99.90;;;;;;5010845;28;20623;-76
2023/02/21 12:13:32;;;;;;;41.17;28.07;;;14.50;99.90;;;;;;5018137;28;20941;-76
2023/02/21 12:16:17;;;;;;;37.17;27.30;;;14.70;99.90;;;;;;5015530;28;20783;-76
2023/02/21 12:19:01;;;;;;;33.70;23.63;;;14.80;99.90;;;;;;5013959;28;20599;-76
2023/02/21 12:21:44;;;;;;;35.87;26.53;;;14.80;99.90;;;;;;4995177;28;21001;-76
2023/02/21 12:24:26;;;;;;;36.23;25.20;;;14.80;99.90;;;;;;4995536;28;20632;-76
2023/02/21 12:27:12;;;;;;;37.63;27.80;;;14.90;99.90;;;;;;4994701;28;20606;-75
2023/02/21 12:29:57;;;;;;;34.33;26.40;;;14.90;99.90;;;;;;4994967;28;20625;-75
2023/02/21 12:32:51;;;;;;;35.40;27.07;;;15.00;99.90;;;;;;4995185;28;20629;-76
2023/02/21 12:35:42;;;;;;;35.43;24.53;;;15.10;99.90;;;;;;5017953;28;20663;-77
2023/02/21 12:38:20;;;;;;;36.60;25.87;;;15.30;99.90;;;;;;5016041;28;20623;-75
2023/02/21 12:41:10;;;;;;;32.17;24.00;;;15.50;99.90;;;;;;5012831;28;20621;-76
2023/02/21 12:43:48;;;;;;;36.33;25.83;;;15.70;99.90;;;;;;5008447;28;20633;-75
2023/02/21 12:46:17;;;;;;;41.87;28.30;;;15.80;99.90;;;;;;5012966;28;20616;-77
2023/02/21 12:49:07;;;;;;;33.97;24.97;;;15.90;99.90;;;;;;5013889;28;20629;-75
2023/02/21 12:51:37;;;;;;;38.00;26.93;;;16.00;99.90;;;;;;5005680;28;20668;-76
2023/02/21 12:54:09;;;;;;;37.53;28.20;;;16.10;99.90;;;;;;5009880;28;20592;-76
2023/02/21 12:56:48;;;;;;;31.90;23.30;;;16.20;99.90;;;;;;5011145;28;20760;-76
2023/02/21 12:59:27;;;;;;;34.67;25.40;;;16.30;99.90;;;;;;5011121;28;21032;-76
2023/02/21 13:02:00;;;;;;;38.40;26.47;;;16.30;99.90;;;;;;5012153;28;20679;-76
2023/02/21 13:04:50;;;;;;;35.10;24.63;;;16.40;99.90;;;;;;5012791;28;20573;-76
2023/02/21 13:07:24;;;;;;;35.57;25.10;;;16.40;99.90;;;;;;5012899;28;20708;-75
2023/02/21 13:10:11;;;;;;;37.80;26.77;;;16.40;99.90;;;;;;5011747;28;21068;-77
2023/02/21 13:13:00;;;;;;;33.57;25.13;;;16.40;99.90;;;;;;5012094;28;20586;-76
2023/02/21 13:15:29;;;;;;;35.13;23.60;;;16.40;99.90;;;;;;5011489;28;20581;-77
2023/02/21 13:18:04;;;;;;;33.13;24.30;;;16.50;99.90;;;;;;5011715;28;20643;-76
2023/02/21 13:20:41;;;;;;;35.10;26.53;;;16.50;99.90;;;;;;5016209;28;20906;-76
2023/02/21 13:26:49;;;;;;;32.77;25.53;;;16.40;99.90;;;;;;5015676;28;21010;-77
2023/02/21 13:29:28;;;;;;;40.37;27.13;;;16.30;99.90;;;;;;5011381;28;20640;-77
2023/02/21 13:32:10;;;;;;;39.43;26.87;;;16.20;99.90;;;;;;5010059;28;21182;-77
2023/02/21 13:34:41;;;;;;;30.00;22.63;;;16.10;99.90;;;;;;5014610;28;20665;-76
2023/02/21 13:37:18;;;;;;;38.43;26.50;;;16.00;99.90;;;;;;4993430;28;20664;-77
2023/02/21 13:39:50;;;;;;;33.67;24.90;;;16.00;99.90;;;;;;5010175;28;20750;-76
2023/02/21 13:42:22;;;;;;;35.47;26.17;;;15.90;99.90;;;;;;5011450;28;20597;-77
2023/02/21 13:44:53;;;;;;;35.63;26.03;;;15.70;99.90;;;;;;5007084;28;20589;-77
2023/02/21 13:47:21;;;;;;;30.00;22.00;;;15.70;99.90;;;;;;4991932;28;20613;-76
2023/02/21 13:50:27;;;;;;;36.50;26.23;;;15.60;99.90;;;;;;4991210;28;20653;-77
2023/02/21 13:53:12;;;;;;;33.80;23.60;;;15.40;99.90;;;;;;4993330;28;20651;-77
2023/02/21 13:55:38;;;;;;;32.80;23.50;;;15.40;99.90;;;;;;5011403;28;21153;-77
2023/02/21 13:58:06;;;;;;;30.50;22.33;;;15.30;99.90;;;;;;4993701;28;21298;-77
2023/02/21 14:00:31;;;;;;;30.73;21.63;;;15.30;99.90;;;;;;5009252;28;20589;-78
2023/02/21 14:03:02;;;;;;;33.97;25.40;;;15.20;99.90;;;;;;5003064;28;20581;-77
2023/02/21 14:05:43;;;;;;;39.53;27.33;;;15.10;99.90;;;;;;5029535;28;20212;-77
2023/02/21 14:08:36;;;;;;;36.77;25.43;;;15.00;99.90;;;;;;5028073;28;21183;-77
2023/02/21 14:11:05;;;;;;;35.87;27.23;;;15.00;99.90;;;;;;5011853;28;21152;-76
2023/02/21 14:13:37;;;;;;;38.97;26.50;;;14.90;99.90;;;;;;5030761;28;20592;-76
2023/02/21 14:16:17;;;;;;;34.07;24.30;;;14.90;99.90;;;;;;5003461;28;20624;-76
2023/02/21 14:19:11;;;;;;;36.43;26.33;;;14.80;99.90;;;;;;5010691;28;20593;-75
2023/02/21 14:21:50;;;;;;;35.13;24.40;;;14.70;99.90;;;;;;5025190;28;20607;-75
2023/02/21 14:24:21;;;;;;;34.70;24.03;;;14.70;99.90;;;;;;5006166;28;20585;-76
2023/02/21 14:27:24;;;;;;;40.20;25.60;;;14.70;99.90;;;;;;5009933;28;21001;-75
2023/02/21 14:30:09;;;;;;;32.60;24.20;;;14.60;99.90;;;;;;5009104;28;21250;-76
2023/02/21 14:32:37;;;;;;;35.40;23.23;;;14.50;99.90;;;;;;5010754;28;21008;-75
2023/02/21 14:35:15;;;;;;;33.53;23.23;;;14.50;99.90;;;;;;5008167;28;20644;-76
2023/02/21 14:37:52;;;;;;;32.83;22.43;;;14.40;99.90;;;;;;5010897;28;20621;-74
2023/02/21 14:40:18;;;;;;;37.93;25.00;;;14.40;99.90;;;;;;5021552;28;20592;-77
2023/02/21 14:43:09;;;;;;;33.50;22.53;;;14.30;99.90;;;;;;5009129;28;20610;-74
2023/02/21 14:46:12;;;;;;;30.60;22.00;;;14.30;99.90;;;;;;5009581;28;20628;-75
2023/02/21 14:49:08;;;;;;;34.93;23.40;;;14.10;99.90;;;;;;4988658;28;20640;-75
2023/02/21 14:51:52;;;;;;;34.00;22.60;;;14.10;99.90;;;;;;4988829;28;20582;-75
2023/02/21 14:54:50;;;;;;;33.80;23.40;;;14.00;99.90;;;;;;4989971;28;20971;-75
2023/02/21 14:57:48;;;;;;;32.10;20.70;;;13.90;99.90;;;;;;4988766;28;20302;-74
2023/02/21 15:00:38;;;;;;;30.53;20.80;;;13.80;99.90;;;;;;4991116;28;21117;-74
2023/02/21 15:03:20;;;;;;;34.95;23.95;;;13.80;99.90;;;;;;4990174;28;21315;-74
2023/02/21 15:05:49;;;;;;;32.63;21.90;;;13.70;99.90;;;;;;5011575;28;20192;-73
2023/02/21 15:08:22;;;;;;;32.50;21.30;;;13.70;99.90;;;;;;5008948;28;20647;-74
2023/02/21 15:10:50;;;;;;;35.67;22.45;;;13.60;99.90;;;;;;5009363;28;20585;-77
2023/02/21 15:13:24;;;;;;;32.30;23.87;;;13.60;99.90;;;;;;5005741;28;20281;-75
2023/02/21 15:15:59;;;;;;;31.87;20.50;;;13.50;99.90;;;;;;5010962;28;20589;-76
2023/02/21 15:18:36;;;;;;;34.72;22.55;;;13.40;99.90;;;;;;4990712;28;20672;-76
2023/02/21 15:21:17;;;;;;;28.83;19.73;;;13.40;99.90;;;;;;5009085;28;20185;-76